Time;durP1;ratioP1;P1;durP2;ratioP2;P2;SDS_P1;SDS_P2;PMS_P1;PMS_P2;Temp;Humidity;BMP_temperature;BMP_pressure;BME280_temperature;BME280_humidity;BME280_pressure;Samples;Min_cycle;Max_cycle;Signal;HPM_P1;HPM_P2
2021/08/03 00:04:43;;;;;;;13.73;6.00;;;;;;;16.65;65.06;98926.19;263027;1092;114891;-67
2021/08/03 00:09:51;;;;;;;9.25;5.63;;;;;;;16.63;65.11;98924.61;262536;1093;115114;-71
2021/08/03 00:14:56;;;;;;;7.17;5.20;;;;;;;16.67;65.29;98926.88;262021;1093;114737;-70
2021/08/03 00:20:00;;;;;;;12.03;6.03;;;;;;;16.70;65.29;98923.92;262245;1092;115124;-70
2021/08/03 00:25:05;;;;;;;10.08;6.30;;;;;;;16.67;65.23;98921.50;263599;1092;115321;-72
2021/08/03 00:30:09;;;;;;;12.08;5.68;;;;;;;16.63;65.03;98924.61;263789;1093;115764;-71
2021/08/03 00:35:12;;;;;;;8.83;5.50;;;;;;;16.58;65.09;98924.19;262944;1092;115212;-74
2021/08/03 00:40:19;;;;;;;11.08;5.35;;;;;;;16.51;65.18;98921.19;263195;1093;115188;-70
2021/08/03 00:45:23;;;;;;;8.50;5.40;;;;;;;16.52;65.60;98926.41;262291;1093;114861;-69
2021/08/03 00:50:27;;;;;;;10.25;5.45;;;;;;;16.57;65.54;98920.63;263437;1093;114593;-71
2021/08/03 00:55:31;;;;;;;8.68;5.33;;;;;;;16.56;65.60;98924.30;263397;1093;115918;-70
2021/08/03 01:00:35;;;;;;;9.00;5.70;;;;;;;16.50;65.90;98928.38;263427;1093;114556;-71
2021/08/03 01:05:53;;;;;;;9.25;5.58;;;;;;;16.44;65.54;98937.00;263607;1092;114918;-70
2021/08/03 01:11:20;;;;;;;9.97;5.33;;;;;;;16.41;65.80;98931.89;263421;1092;115015;-69
2021/08/03 01:16:29;;;;;;;8.07;5.57;;;;;;;16.42;65.90;98914.78;263602;1092;114926;-77
2021/08/03 01:22:00;;;;;;;9.47;5.40;;;;;;;16.42;66.02;98916.63;263075;1093;115345;-74
2021/08/03 01:27:37;;;;;;;11.20;5.60;;;;;;;16.40;65.72;98911.37;262631;1093;114743;-70
2021/08/03 01:32:46;;;;;;;10.70;5.93;;;;;;;16.31;65.92;98910.36;262615;1092;114957;-69
2021/08/03 01:37:51;;;;;;;10.43;6.83;;;;;;;16.27;66.68;98910.74;262708;1093;114970;-71
2021/08/03 01:42:59;;;;;;;8.73;6.20;;;;;;;16.27;66.37;98913.42;263140;1092;115006;-71
2021/08/03 01:48:08;;;;;;;8.33;6.20;;;;;;;16.29;66.16;98912.31;263592;1092;115044;-73
2021/08/03 01:53:14;;;;;;;9.77;6.10;;;;;;;16.25;66.32;98913.58;262266;1092;115316;-67
2021/08/03 01:58:22;;;;;;;12.63;6.30;;;;;;;16.20;66.26;98912.27;263712;1092;115051;-70
2021/08/03 02:03:34;;;;;;;12.33;6.43;;;;;;;16.10;65.87;98928.35;262261;1092;115655;-70
2021/08/03 02:08:48;;;;;;;13.07;7.33;;;;;;;16.04;66.26;98923.50;263137;1093;115168;-68
2021/08/03 02:13:58;;;;;;;7.43;6.10;;;;;;;16.01;66.90;98921.93;263492;1091;115146;-71
2021/08/03 02:19:14;;;;;;;9.78;5.83;;;;;;;16.03;66.57;98936.08;262491;1092;114867;-68
2021/08/03 02:24:36;;;;;;;11.97;6.23;;;;;;;16.04;66.44;98936.92;262620;1093;115098;-68
2021/08/03 02:29:45;;;;;;;10.80;6.63;;;;;;;16.01;66.64;98935.35;263195;1093;115011;-71
2021/08/03 02:34:57;;;;;;;8.67;6.37;;;;;;;16.03;66.62;98940.57;261192;1092;114709;-70
2021/08/03 02:40:05;;;;;;;11.17;6.13;;;;;;;15.99;66.73;98934.63;263361;1093;114829;-68
2021/08/03 02:45:21;;;;;;;10.50;5.53;;;;;;;15.96;66.66;98945.61;262193;1092;115309;-69
2021/08/03 02:50:28;;;;;;;12.07;6.10;;;;;;;15.92;66.57;98946.02;262284;1092;115443;-66
2021/08/03 02:55:40;;;;;;;11.03;6.13;;;;;;;15.89;66.22;98952.49;262007;1092;115278;-68
2021/08/03 03:00:48;;;;;;;13.53;6.83;;;;;;;15.86;66.64;98955.44;263484;1093;115351;-66
2021/08/03 03:05:58;;;;;;;9.00;5.77;;;;;;;15.79;66.63;98947.09;263128;1092;115101;-66
2021/08/03 03:11:07;;;;;;;9.27;5.50;;;;;;;15.75;66.72;98961.72;263250;1092;114902;-67
2021/08/03 03:16:14;;;;;;;10.83;4.73;;;;;;;15.73;66.74;98968.22;262505;1093;115101;-66
2021/08/03 03:21:23;;;;;;;11.20;4.70;;;;;;;15.76;66.79;98966.13;263443;1093;115322;-68
2021/08/03 03:26:33;;;;;;;9.05;4.63;;;;;;;15.78;66.81;98966.83;263473;1092;115715;-69
2021/08/03 03:31:42;;;;;;;9.73;4.60;;;;;;;15.79;67.11;98967.67;263537;1093;115373;-66
2021/08/03 03:36:48;;;;;;;8.07;4.70;;;;;;;15.76;66.82;98979.55;263360;1093;114809;-67
2021/08/03 03:41:55;;;;;;;8.03;5.37;;;;;;;15.74;66.91;98978.81;263531;1092;115736;-66
2021/08/03 03:47:24;;;;;;;7.03;4.40;;;;;;;15.70;66.92;98985.42;263441;1092;115527;-69
2021/08/03 03:52:38;;;;;;;7.30;4.50;;;;;;;15.69;67.12;98994.46;263506;1093;115464;-70
2021/08/03 03:57:44;;;;;;;5.70;4.23;;;;;;;15.94;69.16;98998.59;263531;1093;114742;-68
2021/08/03 04:02:50;;;;;;;20.90;14.90;;;;;;;17.18;70.45;98993.13;263409;1093;115014;-70
2021/08/03 04:07:57;;;;;;;16.07;11.47;;;;;;;18.08;69.52;98985.84;263348;1093;115457;-70
2021/08/03 04:13:01;;;;;;;20.30;14.23;;;;;;;18.65;67.75;98987.53;263669;1092;115797;-68
2021/08/03 04:18:06;;;;;;;13.78;9.35;;;;;;;19.07;67.02;98984.38;263777;1093;115358;-72
2021/08/03 04:23:13;;;;;;;8.87;6.07;;;;;;;19.12;65.40;98995.58;262619;1092;115040;-70
2021/08/03 04:28:18;;;;;;;10.70;8.00;;;;;;;19.04;64.74;99005.41;261823;1091;114840;-69
2021/08/03 04:33:21;;;;;;;71.75;47.13;;;;;;;19.06;65.12;98995.33;263423;1092;115448;-70
2021/08/03 04:38:25;;;;;;;14.23;10.57;;;;;;;19.00;63.84;98988.67;263507;1092;115051;-69
2021/08/03 04:43:29;;;;;;;9.73;7.80;;;;;;;18.98;64.13;98985.27;263550;1092;115992;-70
2021/08/03 04:48:32;;;;;;;9.28;6.35;;;;;;;19.09;64.27;98985.09;263847;1092;115256;-70
2021/08/03 04:53:36;;;;;;;5.80;4.30;;;;;;;19.15;63.46;98987.16;263684;1092;115175;-68
2021/08/03 04:58:41;;;;;;;9.75;4.63;;;;;;;19.15;63.05;98984.45;263297;1092;114939;-67
2021/08/03 05:03:45;;;;;;;9.20;4.90;;;;;;;19.06;62.87;98995.33;263313;1093;115651;-67
2021/08/03 05:08:49;;;;;;;9.83;4.90;;;;;;;19.02;62.88;98989.39;263441;1093;115538;-70
2021/08/03 05:13:53;;;;;;;;;;;;;;;19.06;63.18;98989.94;263702;1092;115178;-72
2021/08/03 05:18:56;;;;;;;8.67;4.80;;;;;;;19.11;62.49;98988.47;262059;1092;102889;-68
2021/08/03 05:24:00;;;;;;;8.57;4.73;;;;;;;18.65;61.58;99003.70;262949;1093;114944;-69
2021/08/03 05:29:07;;;;;;;9.67;4.93;;;;;;;18.27;62.44;99007.34;263017;1092;115099;-69
2021/08/03 05:34:11;;;;;;;12.55;4.58;;;;;;;17.99;62.20;99003.70;263761;1093;115623;-67
2021/08/03 05:39:15;;;;;;;9.35;3.73;;;;;;;17.82;62.51;99005.27;263122;1093;115471;-72
2021/08/03 05:44:18;;;;;;;6.17;4.00;;;;;;;17.78;62.98;98997.63;263276;1093;115216;-72
2021/08/03 05:49:24;;;;;;;10.90;4.10;;;;;;;17.83;63.15;99001.60;263578;1093;115651;-74
2021/08/03 05:54:28;;;;;;;5.93;3.30;;;;;;;17.86;63.01;99006.67;263524;1093;115298;-69
2021/08/03 05:59:32;;;;;;;7.78;3.45;;;;;;;17.88;63.01;99010.09;263138;1092;115097;-67
2021/08/03 06:04:35;;;;;;;5.00;2.87;;;;;;;17.92;62.75;99006.11;263600;1092;115431;-65
2021/08/03 06:09:40;;;;;;;7.80;3.13;;;;;;;17.95;63.37;99016.59;263675;1092;114655;-71
2021/08/03 06:14:44;;;;;;;7.00;3.58;;;;;;;18.00;63.37;99009.93;263535;1093;115482;-70
2021/08/03 06:19:50;;;;;;;7.90;3.50;;;;;;;18.04;63.11;99014.91;263404;1092;114862;-70
2021/08/03 06:24:54;;;;;;;9.77;3.37;;;;;;;18.06;63.06;99012.91;263783;1092;115115;-69
2021/08/03 06:30:08;;;;;;;11.85;3.48;;;;;;;18.13;63.37;99005.94;263656;1093;114611;-68
2021/08/03 06:35:13;;;;;;;7.77;3.60;;;;;;;18.22;63.75;99012.33;263702;1093;115318;-67
2021/08/03 06:40:17;;;;;;;5.73;3.50;;;;;;;18.31;63.61;99011.47;263437;1092;115086;-70
2021/08/03 06:45:31;;;;;;;6.27;3.47;;;;;;;18.40;63.20;99013.27;263599;1092;115147;-68
2021/08/03 06:50:40;;;;;;;6.97;3.43;;;;;;;18.49;63.10;99022.34;263185;1093;114985;-74
2021/08/03 06:55:47;;;;;;;4.93;3.50;;;;;;;18.56;63.11;99023.45;263173;1092;115049;-71
2021/08/03 07:00:52;;;;;;;5.07;2.87;;;;;;;18.60;63.04;99011.38;263431;1093;115169;-67
2021/08/03 07:05:57;;;;;;;5.43;2.90;;;;;;;18.66;62.51;99010.79;263526;1092;115672;-66
2021/08/03 07:11:03;;;;;;;6.07;3.43;;;;;;;18.72;62.32;99014.78;263475;1093;115576;-68
2021/08/03 07:16:06;;;;;;;5.67;2.80;;;;;;;18.82;62.75;99014.75;263411;1092;115095;-70
2021/08/03 07:21:12;;;;;;;4.63;3.13;;;;;;;18.89;62.51;99014.00;263599;1093;114890;-69
2021/08/03 07:26:17;;;;;;;4.60;2.40;;;;;;;19.02;62.34;99016.36;263602;1093;114700;-69
2021/08/03 07:31:21;;;;;;;5.30;3.00;;;;;;;19.09;61.72;99014.77;263505;1092;115236;-69
2021/08/03 07:36:25;;;;;;;6.15;2.85;;;;;;;19.19;61.85;99011.14;263251;1092;114863;-66
2021/08/03 07:41:28;;;;;;;5.87;3.03;;;;;;;19.24;61.83;99001.61;263491;1093;117714;-69
2021/08/03 07:46:33;;;;;;;8.70;2.90;;;;;;;19.31;61.78;99007.25;263526;1093;115110;-67
2021/08/03 07:51:37;;;;;;;6.03;2.50;;;;;;;19.35;61.22;99005.94;263293;1092;115169;-68
2021/08/03 07:56:41;;;;;;;4.50;3.65;;;;;;;19.43;61.39;99011.44;263474;1091;115915;-68
2021/08/03 08:01:45;;;;;;;125.10;96.27;;;;;;;19.67;62.04;99008.17;263369;1093;115064;-69
2021/08/03 08:06:48;;;;;;;18.08;13.65;;;;;;;19.90;62.19;99018.49;263416;1093;115092;-70
2021/08/03 08:11:53;;;;;;;3.30;2.60;;;;;;;20.12;61.25;99014.48;263011;1093;115369;-67
2021/08/03 08:17:00;;;;;;;6.60;3.25;;;;;;;20.24;60.61;99008.64;263244;1092;115227;-67
2021/08/03 08:22:04;;;;;;;2.83;2.20;;;;;;;20.36;60.33;99014.66;262891;1092;115392;-66
2021/08/03 08:27:07;;;;;;;4.68;2.88;;;;;;;20.48;60.25;99013.40;263662;1093;115006;-66
2021/08/03 08:32:11;;;;;;;7.98;3.03;;;;;;;20.61;59.76;99014.84;263070;1092;114855;-68
2021/08/03 08:37:15;;;;;;;5.25;2.80;;;;;;;20.67;59.46;99008.80;263680;1092;114937;-70
2021/08/03 08:42:18;;;;;;;4.15;2.98;;;;;;;20.74;59.37;99009.85;263732;1093;115225;-68
2021/08/03 08:47:24;;;;;;;3.55;2.83;;;;;;;20.81;59.04;99010.90;263779;1092;115135;-70
2021/08/03 08:52:29;;;;;;;4.87;2.50;;;;;;;20.93;59.14;99008.78;263621;1092;114584;-68
2021/08/03 08:57:33;;;;;;;6.37;2.97;;;;;;;21.08;59.10;99011.70;263675;1093;115125;-70
2021/08/03 09:02:41;;;;;;;5.37;2.90;;;;;;;21.19;59.00;99001.41;263301;1093;115416;-68
2021/08/03 09:07:51;;;;;;;3.70;2.43;;;;;;;21.33;59.18;99004.51;263244;1092;115054;-69
2021/08/03 09:13:01;;;;;;;3.40;2.40;;;;;;;21.42;58.50;99004.41;263276;1092;115116;-68
2021/08/03 09:18:35;;;;;;;3.03;2.23;;;;;;;21.48;57.75;99000.20;263907;1092;115105;-67
2021/08/03 09:24:00;;;;;;;2.83;2.37;;;;;;;21.53;57.53;98996.98;263698;1092;115179;-67
2021/08/03 09:29:06;;;;;;;65.20;45.43;;;;;;;21.62;57.68;98982.45;263641;1092;115253;-69
2021/08/03 09:34:15;;;;;;;10.90;7.10;;;;;;;21.69;57.19;98976.19;263872;1092;115058;-68
2021/08/03 09:39:37;;;;;;;6.27;4.13;;;;;;;21.78;57.16;98971.63;263317;1093;115120;-68
2021/08/03 09:44:51;;;;;;;7.83;6.03;;;;;;;21.88;57.19;98972.31;263068;1092;115486;-67
2021/08/03 09:50:06;;;;;;;90.10;61.10;;;;;;;22.00;56.80;98975.52;263581;1092;115989;-68
2021/08/03 09:55:22;;;;;;;8.30;5.50;;;;;;;22.11;56.42;98969.78;263442;1092;115076;-67
2021/08/03 10:00:27;;;;;;;11.28;4.73;;;;;;;22.19;56.46;98969.79;263543;1092;115156;-66
2021/08/03 10:05:32;;;;;;;4.17;2.60;;;;;;;22.27;55.92;98976.22;263334;1092;114811;-69
2021/08/03 10:10:37;;;;;;;4.20;2.10;;;;;;;22.35;55.69;98974.35;263617;1093;114932;-67
2021/08/03 10:15:40;;;;;;;3.17;1.83;;;;;;;22.47;55.25;98977.53;263902;1093;115131;-67
2021/08/03 10:20:46;;;;;;;3.78;1.73;;;;;;;22.60;55.14;98972.42;263929;1093;115227;-71
2021/08/03 10:25:50;;;;;;;;;;;;;;;22.72;54.74;98963.90;263756;1093;115061;-69
2021/08/03 10:30:54;;;;;;;4.98;1.88;;;;;;;22.87;54.93;98959.45;263353;1093;102888;-66
2021/08/03 10:35:59;;;;;;;3.57;1.70;;;;;;;23.06;54.63;98963.63;263785;1093;115387;-67
2021/08/03 10:41:16;;;;;;;3.25;2.00;;;;;;;23.25;54.17;98959.64;263540;1092;115058;-69
2021/08/03 10:46:20;;;;;;;2.07;1.60;;;;;;;23.44;54.06;98953.76;263905;1092;114894;-65
2021/08/03 10:51:37;;;;;;;2.03;1.53;;;;;;;23.56;53.71;98954.17;263940;1093;114921;-65
2021/08/03 10:56:56;;;;;;;3.90;1.80;;;;;;;23.65;53.11;98944.95;263888;1092;117660;-70
2021/08/03 11:02:29;;;;;;;2.73;1.70;;;;;;;23.75;52.94;98937.42;263899;1092;115106;-69
2021/08/03 11:07:36;;;;;;;2.60;1.80;;;;;;;23.91;52.83;98928.27;263309;1093;114871;-67
2021/08/03 11:12:46;;;;;;;2.90;1.70;;;;;;;24.03;52.42;98921.38;263263;1092;115049;-67
2021/08/03 11:17:54;;;;;;;2.57;1.60;;;;;;;24.19;52.44;98917.66;263738;1092;114875;-67
2021/08/03 11:22:57;;;;;;;2.60;2.00;;;;;;;24.31;52.31;98905.28;263176;1092;114687;-70
2021/08/03 11:28:18;;;;;;;2.05;1.70;;;;;;;24.38;51.90;98901.81;263569;1093;116037;-68
2021/08/03 11:33:25;;;;;;;5.57;1.70;;;;;;;24.44;51.53;98901.11;263595;1093;115109;-66
2021/08/03 11:38:31;;;;;;;2.70;1.90;;;;;;;24.53;51.27;98897.27;263923;1092;115003;-70
2021/08/03 11:43:34;;;;;;;2.37;1.50;;;;;;;24.58;51.64;98886.64;263863;1092;115155;-66
2021/08/03 11:48:38;;;;;;;3.83;1.63;;;;;;;24.68;51.03;98870.03;264041;1093;114825;-69
2021/08/03 11:53:42;;;;;;;1.75;1.43;;;;;;;24.84;51.31;98871.70;263882;1092;114974;-69
2021/08/03 11:58:45;;;;;;;5.68;1.60;;;;;;;25.01;50.68;98868.55;263902;1092;114506;-68
2021/08/03 12:04:15;;;;;;;2.10;1.60;;;;;;;25.16;50.26;98882.15;263789;1093;115286;-67
2021/08/03 12:09:20;;;;;;;2.97;1.60;;;;;;;25.02;49.62;98872.95;263516;1093;114923;-71
2021/08/03 12:14:33;;;;;;;1.60;1.50;;;;;;;25.02;49.67;98863.95;263357;1092;114981;-69
2021/08/03 12:19:36;;;;;;;2.60;1.63;;;;;;;25.06;50.09;98861.68;263497;1093;115732;-67
2021/08/03 12:25:00;;;;;;;3.20;1.50;;;;;;;25.27;49.62;98853.55;263595;1092;114883;-67
2021/08/03 12:30:06;;;;;;;2.60;1.57;;;;;;;25.41;49.25;98849.95;263107;1092;115392;-69
2021/08/03 12:35:14;;;;;;;2.97;1.33;;;;;;;25.16;48.58;98846.73;263826;1092;115369;-71
2021/08/03 12:40:32;;;;;;;2.37;1.63;;;;;;;25.16;48.94;98838.57;263946;1092;114968;-66
2021/08/03 12:45:38;;;;;;;1.83;1.40;;;;;;;25.01;48.42;98840.48;263482;1092;115049;-70
2021/08/03 12:50:47;;;;;;;4.53;1.73;;;;;;;24.88;48.51;98837.61;263926;1091;115692;-65
2021/08/03 12:55:54;;;;;;;2.93;1.90;;;;;;;24.77;48.76;98838.95;263766;1093;116229;-71
2021/08/03 13:01:13;;;;;;;3.43;1.60;;;;;;;24.74;48.84;98831.17;263261;1092;115603;-67
2021/08/03 13:06:18;;;;;;;4.73;1.60;;;;;;;24.79;49.47;98826.82;263790;1093;115044;-69
2021/08/03 13:11:21;;;;;;;4.13;2.00;;;;;;;24.80;49.34;98827.69;261809;1091;114778;-68
2021/08/03 13:16:25;;;;;;;3.25;1.50;;;;;;;25.21;49.62;98825.23;263465;1091;114965;-68
2021/08/03 13:21:29;;;;;;;1.68;1.58;;;;;;;25.63;49.17;98806.31;263210;1093;115409;-68
2021/08/03 13:26:32;;;;;;;4.05;1.70;;;;;;;26.03;48.41;98803.91;262709;1092;114871;-69
2021/08/03 13:31:36;;;;;;;8.53;4.65;;;;;;;26.46;48.59;98800.97;263485;1092;115052;-66
2021/08/03 13:36:40;;;;;;;;;;;;;;;26.64;47.50;98793.11;262088;1092;114898;-69
2021/08/03 13:41:44;;;;;;;6.10;4.17;;;;;;;26.83;47.34;98777.82;263094;1092;102894;-68
2021/08/03 13:46:48;;;;;;;3.48;2.60;;;;;;;27.12;47.00;98771.16;263444;1092;115823;-67
2021/08/03 13:51:52;;;;;;;;;;;;;;;27.33;46.20;98772.89;263023;1092;115106;-67
2021/08/03 13:56:55;;;;;;;39.97;35.60;;;;;;;27.40;45.45;98761.96;263884;1093;102040;-68
2021/08/03 14:02:05;;;;;;;41.57;22.37;;;;;;;27.54;44.91;98764.47;263026;1093;115209;-70
2021/08/03 14:07:12;;;;;;;5.03;3.20;;;;;;;27.68;44.92;98750.79;263527;1093;115758;-69
2021/08/03 14:12:15;;;;;;;6.55;3.13;;;;;;;27.82;45.02;98747.88;263557;1092;114623;-68
2021/08/03 14:17:19;;;;;;;1.38;1.10;;;;;;;27.93;44.15;98738.16;263422;1092;114677;-75
2021/08/03 14:22:22;;;;;;;4.60;1.43;;;;;;;28.00;43.96;98741.72;263680;1092;114863;-65
2021/08/03 14:27:26;;;;;;;74.07;56.33;;;;;;;28.00;43.34;98733.51;263283;1093;115043;-68
2021/08/03 14:32:30;;;;;;;4.97;3.80;;;;;;;27.98;42.99;98729.30;263360;1092;115801;-68
2021/08/03 14:37:34;;;;;;;2.07;1.70;;;;;;;27.88;42.85;98726.17;263248;1093;115606;-67
2021/08/03 14:42:38;;;;;;;3.45;1.78;;;;;;;27.69;42.52;98722.41;263569;1091;114650;-70
2021/08/03 14:47:42;;;;;;;13.57;9.77;;;;;;;27.46;42.50;98722.86;263233;1092;115825;-70
2021/08/03 14:52:46;;;;;;;3.20;2.30;;;;;;;27.21;42.19;98717.17;263580;1092;115556;-66
2021/08/03 14:57:50;;;;;;;2.00;1.83;;;;;;;26.97;42.53;98713.13;263666;1092;115766;-70
2021/08/03 15:02:54;;;;;;;180.90;122.87;;;;;;;26.70;42.45;98714.98;263072;1092;115362;-69
2021/08/03 15:07:58;;;;;;;6.88;5.85;;;;;;;26.43;42.16;98717.64;263440;1093;115484;-67
2021/08/03 15:13:01;;;;;;;25.45;18.88;;;;;;;26.17;42.34;98721.93;263686;1093;115324;-68
2021/08/03 15:18:05;;;;;;;4.23;2.00;;;;;;;25.93;42.34;98719.72;263299;1092;115055;-71
2021/08/03 15:23:08;;;;;;;2.90;1.48;;;;;;;25.76;42.29;98723.79;263534;1093;115292;-67
2021/08/03 15:28:12;;;;;;;3.83;1.30;;;;;;;25.61;42.72;98718.43;263440;1092;115675;-67
2021/08/03 15:33:15;;;;;;;2.93;1.50;;;;;;;25.47;42.65;98714.77;263334;1092;115853;-72
2021/08/03 15:38:19;;;;;;;2.15;1.38;;;;;;;25.36;43.03;98721.63;263073;1093;115175;-68
2021/08/03 15:43:23;;;;;;;280.03;230.45;;;;;;;25.25;42.97;98714.84;263559;1093;115243;-66
2021/08/03 15:48:28;;;;;;;;;;;;;;;25.18;42.83;98713.94;262236;1092;115825;-69
2021/08/03 15:53:32;;;;;;;3.83;3.23;;;;;;;25.08;42.91;98724.30;263366;1093;103118;-68
2021/08/03 15:58:35;;;;;;;3.20;1.50;;;;;;;25.00;42.89;98721.72;263227;1092;115733;-67
2021/08/03 16:03:43;;;;;;;2.00;1.50;;;;;;;24.90;43.13;98726.66;263695;1092;115202;-70
2021/08/03 16:08:46;;;;;;;1.15;1.05;;;;;;;24.83;42.68;98739.33;263436;1093;115134;-68
2021/08/03 16:13:50;;;;;;;2.35;1.40;;;;;;;24.75;42.65;98735.70;263534;1093;115031;-70
2021/08/03 16:18:59;;;;;;;1.63;1.30;;;;;;;24.69;42.80;98736.47;263547;1093;114796;-66
2021/08/03 16:24:02;;;;;;;2.77;1.07;;;;;;;24.61;42.59;98736.60;263324;1093;115696;-70
2021/08/03 16:29:06;;;;;;;1.70;1.20;;;;;;;24.56;42.61;98730.91;263537;1092;114922;-69
2021/08/03 16:34:11;;;;;;;1.45;1.28;;;;;;;24.52;42.55;98725.02;263225;1092;115261;-72
2021/08/03 16:39:15;;;;;;;1.57;1.27;;;;;;;24.47;42.48;98722.01;263306;1093;114902;-70
2021/08/03 16:44:20;;;;;;;49.50;37.47;;;;;;;24.46;42.95;98720.33;263468;1092;115105;-74
2021/08/03 16:49:23;;;;;;;21.00;15.80;;;;;;;24.42;42.93;98707.28;263715;1093;116435;-66
2021/08/03 16:54:43;;;;;;;7.87;3.90;;;;;;;24.37;43.12;98699.68;263718;1092;117898;-71
2021/08/03 16:59:47;;;;;;;3.58;2.78;;;;;;;24.31;43.19;98693.12;263377;1092;115562;-69
2021/08/03 17:04:57;;;;;;;2.85;1.60;;;;;;;24.27;42.79;98701.86;263175;1092;114677;-68
2021/08/03 17:10:03;;;;;;;6.57;1.83;;;;;;;24.22;43.04;98698.89;262971;1093;114907;-69
2021/08/03 17:15:08;;;;;;;4.30;2.67;;;;;;;24.15;43.50;98709.69;263491;1093;114973;-72
2021/08/03 17:20:14;;;;;;;165.90;121.07;;;;;;;24.06;44.28;98710.81;262562;1092;115164;-69
2021/08/03 17:25:19;;;;;;;37.13;31.17;;;;;;;24.03;44.33;98720.19;263657;1093;116108;-70
2021/08/03 17:30:23;;;;;;;20.83;13.23;;;;;;;24.02;44.26;98717.67;263681;1093;115161;-69
2021/08/03 17:35:27;;;;;;;10.38;7.13;;;;;;;24.03;45.05;98722.06;263460;1092;116342;-68
2021/08/03 17:40:34;;;;;;;7.07;3.27;;;;;;;23.97;45.80;98718.22;262966;1093;116549;-69
2021/08/03 17:45:38;;;;;;;4.27;2.30;;;;;;;23.91;46.05;98718.96;262788;1093;115610;-67
2021/08/03 17:50:46;;;;;;;6.13;3.47;;;;;;;23.82;46.23;98718.23;263678;1093;115249;-70
2021/08/03 17:55:52;;;;;;;296.47;227.90;;;;;;;23.73;46.66;98716.63;263014;1093;115054;-71
2021/08/03 18:00:58;;;;;;;11.68;8.80;;;;;;;23.64;46.91;98731.33;263365;1093;115813;-68
2021/08/03 18:06:02;;;;;;;81.07;64.67;;;;;;;23.57;47.01;98730.36;263736;1092;115305;-70
2021/08/03 18:11:06;;;;;;;;;;;;;;;23.51;46.97;98742.83;263385;1091;115157;-70
2021/08/03 18:16:16;;;;;;;21.57;15.93;;;;;;;23.44;47.31;98750.04;262974;1092;103081;-70
2021/08/03 18:21:21;;;;;;;7.10;4.47;;;;;;;23.40;47.60;98750.57;263303;1093;115649;-70
2021/08/03 18:26:31;;;;;;;146.73;113.37;;;;;;;23.33;47.83;98756.73;263251;1093;114763;-71
2021/08/03 18:31:40;;;;;;;13.27;9.57;;;;;;;23.29;47.86;98765.44;262732;1093;115984;-69
2021/08/03 18:36:47;;;;;;;8.40;6.30;;;;;;;23.26;48.01;98760.38;263662;1092;116863;-67
2021/08/03 18:41:52;;;;;;;76.67;68.60;;;;;;;23.21;48.20;98760.09;263211;1092;115148;-67
2021/08/03 18:46:57;;;;;;;22.33;17.67;;;;;;;23.16;48.61;98768.77;263500;1093;115637;-68
2021/08/03 18:52:01;;;;;;;;;;;;;;;23.14;48.78;98773.55;263222;1093;115593;-71
2021/08/03 18:57:06;;;;;;;17.37;9.80;;;;;;;23.05;48.61;98778.19;263535;1092;101702;-66
2021/08/03 19:02:11;;;;;;;6.57;3.10;;;;;;;22.93;48.48;98797.78;263276;1093;116004;-70
2021/08/03 19:07:30;;;;;;;2.80;2.10;;;;;;;22.76;48.55;98803.31;262908;1093;115089;-67
2021/08/03 19:12:36;;;;;;;182.77;154.10;;;;;;;22.62;48.83;98795.91;262994;1093;114795;-67
2021/08/03 19:17:56;;;;;;;31.40;25.37;;;;;;;22.52;48.98;98811.55;263593;1092;116685;-69
2021/08/03 19:23:08;;;;;;;6.73;4.90;;;;;;;22.42;49.17;98809.92;262469;1092;115784;-68
2021/08/03 19:28:14;;;;;;;2.83;2.00;;;;;;;22.29;49.12;98801.51;263639;1093;117045;-70
2021/08/03 19:33:18;;;;;;;3.30;2.10;;;;;;;22.13;49.20;98807.80;263563;1092;115267;-69
2021/08/03 19:38:25;;;;;;;;;;;;;;;21.96;49.43;98819.70;263242;1093;115047;-71
2021/08/03 19:43:29;;;;;;;2.47;1.77;;;;;;;21.82;49.86;98823.13;262936;1093;103065;-70
2021/08/03 19:48:37;;;;;;;3.05;2.03;;;;;;;21.67;49.85;98823.84;263646;1093;114946;-71
2021/08/03 19:53:42;;;;;;;1.77;1.60;;;;;;;21.55;50.26;98835.19;263298;1092;114914;-69
2021/08/03 19:58:47;;;;;;;3.70;1.97;;;;;;;21.45;50.54;98822.66;263137;1092;115201;-67
2021/08/03 20:03:51;;;;;;;3.87;1.90;;;;;;;21.40;50.90;98829.59;263046;1092;115050;-68
2021/08/03 20:08:55;;;;;;;3.50;1.75;;;;;;;21.32;51.12;98840.39;263370;1092;115770;-69
2021/08/03 20:13:59;;;;;;;145.18;111.33;;;;;;;21.30;51.62;98843.28;263459;1092;114811;-68
2021/08/03 20:19:04;;;;;;;6.50;5.33;;;;;;;21.31;51.70;98846.83;263281;1092;115844;-71
2021/08/03 20:24:08;;;;;;;4.30;2.63;;;;;;;21.22;51.50;98851.38;263157;1093;115006;-70
2021/08/03 20:29:12;;;;;;;2.58;1.60;;;;;;;21.14;51.72;98860.34;263600;1093;116498;-68
2021/08/03 20:34:19;;;;;;;4.30;2.10;;;;;;;21.06;51.75;98864.88;263470;1092;114954;-68
2021/08/03 20:44:42;;;;;;;4.65;2.00;;;;;;;20.91;52.59;98864.69;263363;1092;114964;-71
2021/08/03 20:49:48;;;;;;;6.20;2.07;;;;;;;20.79;52.76;98861.47;263105;1093;115351;-72
2021/08/03 20:54:52;;;;;;;4.17;2.00;;;;;;;20.67;53.91;98854.65;263352;1092;114951;-70
2021/08/03 20:59:56;;;;;;;2.50;2.08;;;;;;;20.55;54.01;98860.37;263457;1092;115034;-70
2021/08/03 21:05:02;;;;;;;2.67;1.90;;;;;;;20.47;54.85;98870.25;263620;1092;115141;-71
2021/08/03 21:10:07;;;;;;;3.57;2.00;;;;;;;20.36;55.04;98871.39;263055;1093;117802;-70
2021/08/03 21:15:11;;;;;;;2.83;1.80;;;;;;;20.31;55.35;98860.20;263181;1092;115166;-72
2021/08/03 21:20:33;;;;;;;3.63;2.13;;;;;;;20.28;55.91;98857.85;263242;1093;114731;-70
2021/08/03 21:25:55;;;;;;;5.90;2.40;;;;;;;20.28;56.57;98869.51;262898;1092;114737;-71
2021/08/03 21:31:18;;;;;;;3.70;2.30;;;;;;;20.35;56.65;98885.09;263313;1093;115305;-69
2021/08/03 21:36:40;;;;;;;4.30;2.37;;;;;;;20.36;56.40;98878.66;263180;1092;115180;-71
2021/08/03 21:42:03;;;;;;;6.27;2.97;;;;;;;20.31;56.85;98868.31;263156;1092;115066;-70
2021/08/03 21:47:25;;;;;;;4.97;2.80;;;;;;;20.20;56.59;98860.50;263688;1093;114592;-72
2021/08/03 21:52:47;;;;;;;11.23;3.10;;;;;;;20.09;56.89;98848.95;263561;1092;114824;-71
2021/08/03 21:57:51;;;;;;;9.05;3.48;;;;;;;19.96;57.12;98853.94;263348;1092;114939;-69
2021/08/03 22:02:54;;;;;;;6.70;3.07;;;;;;;19.83;57.18;98851.66;262723;1093;115020;-69
2021/08/03 22:07:59;;;;;;;10.70;3.33;;;;;;;19.79;56.73;98850.29;262824;1092;115203;-66
2021/08/03 22:13:03;;;;;;;8.35;2.85;;;;;;;19.73;57.11;98847.37;263238;1093;115807;-70
2021/08/03 22:18:08;;;;;;;6.77;2.93;;;;;;;19.65;57.47;98836.52;262630;1093;116263;-68
2021/08/03 22:23:11;;;;;;;13.03;3.00;;;;;;;19.57;57.45;98824.63;263526;1092;115641;-70
2021/08/03 22:28:15;;;;;;;6.10;3.10;;;;;;;19.51;57.55;98822.56;263657;1093;116364;-73
2021/08/03 22:33:19;;;;;;;8.13;2.80;;;;;;;19.44;57.53;98816.09;261081;1093;114749;-70
2021/08/03 22:38:23;;;;;;;6.20;3.13;;;;;;;19.34;57.54;98818.04;263495;1093;115731;-72
2021/08/03 22:43:27;;;;;;;7.60;3.60;;;;;;;19.28;57.89;98810.56;263547;1093;114605;-70
2021/08/03 22:48:30;;;;;;;12.95;3.30;;;;;;;19.21;58.02;98809.50;263638;1092;115005;-68
2021/08/03 22:53:34;;;;;;;11.68;3.38;;;;;;;19.11;58.36;98798.78;263005;1092;114968;-67
2021/08/03 22:58:38;;;;;;;6.67;3.10;;;;;;;19.06;58.38;98795.72;263318;1092;114952;-69
2021/08/03 23:03:43;;;;;;;5.35;2.48;;;;;;;19.06;58.89;98791.17;263429;1092;114688;-68
2021/08/03 23:08:46;;;;;;;3.87;2.10;;;;;;;19.06;58.87;98791.17;263496;1092;115009;-73
2021/08/03 23:13:50;;;;;;;3.07;2.07;;;;;;;19.07;59.31;98790.16;263548;1092;114905;-70
2021/08/03 23:18:54;;;;;;;3.70;2.05;;;;;;;19.01;58.85;98787.23;263758;1093;115235;-69
2021/08/03 23:23:57;;;;;;;2.90;2.10;;;;;;;18.94;58.82;98800.48;262227;1093;114971;-69
2021/08/03 23:29:02;;;;;;;5.27;2.53;;;;;;;18.86;59.40;98795.88;263707;1093;114626;-69
2021/08/03 23:34:05;;;;;;;3.88;1.93;;;;;;;18.77;59.34;98799.48;263508;1093;114509;-68
2021/08/03 23:39:09;;;;;;;2.85;1.95;;;;;;;18.68;59.34;98797.66;263708;1093;115494;-70